Time;durP1;ratioP1;P1;durP2;ratioP2;P2;SDS_P1;SDS_P2;PMS_P1;PMS_P2;Temp;Humidity;BMP_temperature;BMP_pressure;BME280_temperature;BME280_humidity;BME280_pressure;Samples;Min_cycle;Max_cycle;Signal;HPM_P1;HPM_P2
2021/04/16 00:01:28;;;;;;;;;24.50;21.50;;;;;;;;5021407;28;11541;-88
2021/04/16 00:03:55;;;;;;;;;22.00;19.00;;;;;;;;5017767;28;11630;-83
2021/04/16 00:06:22;;;;;;;;;18.25;18.25;;;;;;;;5022884;28;11623;-88
2021/04/16 00:08:49;;;;;;;;;17.75;14.50;;;;;;;;5041205;28;11658;-84
2021/04/16 00:11:18;;;;;;;;;23.75;18.75;;;;;;;;5023500;28;11585;-87
2021/04/16 00:13:45;;;;;;;;;32.33;19.00;;;;;;;;5024065;28;12528;-86
2021/04/16 00:16:14;;;;;;;;;30.67;24.67;;;;;;;;5036054;28;11589;-86
2021/04/16 00:18:43;;;;;;;;;32.00;26.67;;;;;;;;5023830;28;11630;-86
2021/04/16 00:21:10;;;;;;;;;24.33;23.33;;;;;;;;5024162;28;11734;-85
2021/04/16 00:23:37;;;;;;;;;18.25;18.25;;;;;;;;5025638;28;11780;-88
2021/04/16 00:26:04;;;;;;;;;27.33;24.67;;;;;;;;5025405;28;11625;-88
2021/04/16 00:28:31;;;;;;;;;27.67;24.00;;;;;;;;5024440;28;12418;-84
2021/04/16 00:31:00;;;;;;;;;23.33;18.33;;;;;;;;5019927;28;11571;-83
2021/04/16 00:33:27;;;;;;;;;26.33;20.33;;;;;;;;5023091;28;11721;-81
2021/04/16 00:35:55;;;;;;;;;55.00;46.00;;;;;;;;5022235;28;11619;-85
2021/04/16 00:38:23;;;;;;;;;18.33;18.33;;;;;;;;5036045;28;8873;-83
2021/04/16 00:40:53;;;;;;;;;23.25;18.50;;;;;;;;5026551;28;12444;-84
2021/04/16 00:43:23;;;;;;;;;25.33;24.00;;;;;;;;5028752;28;11619;-83
2021/04/16 00:45:56;;;;;;;;;25.00;24.33;;;;;;;;5022311;28;11604;-83
2021/04/16 00:48:28;;;;;;;;;21.00;21.00;;;;;;;;5022948;28;11635;-83
2021/04/16 00:50:58;;;;;;;;;20.33;20.33;;;;;;;;5023802;28;11616;-84
2021/04/16 00:53:25;;;;;;;;;28.33;27.33;;;;;;;;5022552;28;11759;-82
2021/04/16 00:55:53;;;;;;;;;17.00;17.00;;;;;;;;5024315;28;8867;-82
2021/04/16 00:58:22;;;;;;;;;25.00;24.33;;;;;;;;5025975;28;11610;-81
2021/04/16 01:00:50;;;;;;;;;28.67;27.00;;;;;;;;5020901;28;11560;-80
2021/04/16 01:03:17;;;;;;;;;23.33;19.67;;;;;;;;5021433;28;8922;-81
2021/04/16 01:05:44;;;;;;;;;18.00;18.00;;;;;;;;5022702;28;11622;-80
2021/04/16 01:08:12;;;;;;;;;15.33;15.33;;;;;;;;5019060;28;8844;-81
2021/04/16 01:10:40;;;;;;;;;18.00;15.67;;;;;;;;5029500;28;11614;-83
2021/04/16 01:13:07;;;;;;;;;18.67;17.00;;;;;;;;5023247;28;11594;-82
2021/04/16 01:15:38;;;;;;;;;21.00;18.00;;;;;;;;5010181;28;11594;-81
2021/04/16 01:18:08;;;;;;;;;19.33;18.00;;;;;;;;5024482;28;11618;-81
2021/04/16 01:20:39;;;;;;;;;8.67;8.67;;;;;;;;5020830;28;11676;-80
2021/04/16 01:23:10;;;;;;;;;26.33;21.67;;;;;;;;5022218;28;11577;-81
2021/04/16 01:25:38;;;;;;;;;30.33;17.00;;;;;;;;5023404;28;8867;-81
2021/04/16 01:28:05;;;;;;;;;17.00;16.67;;;;;;;;5022569;28;11751;-83
2021/04/16 01:30:32;;;;;;;;;25.33;22.67;;;;;;;;5015444;28;11515;-81
2021/04/16 01:32:59;;;;;;;;;17.67;17.67;;;;;;;;5028798;28;8876;-80
2021/04/16 01:35:31;;;;;;;;;36.33;18.00;;;;;;;;5022978;28;11723;-86
2021/04/16 01:37:58;;;;;;;;;24.00;24.00;;;;;;;;5021199;28;8872;-92
2021/04/16 01:40:25;;;;;;;;;18.00;15.67;;;;;;;;5007097;28;11622;-89
2021/04/16 01:42:53;;;;;;;;;23.67;20.00;;;;;;;;5023846;28;11597;-92
2021/04/16 01:45:23;;;;;;;;;20.00;17.67;;;;;;;;5020198;28;11714;-91
2021/04/16 01:47:55;;;;;;;;;25.00;22.67;;;;;;;;5025378;28;11597;-85
2021/04/16 01:50:22;;;;;;;;;20.67;20.67;;;;;;;;5022143;28;8896;-86
2021/04/16 01:52:49;;;;;;;;;34.33;26.67;;;;;;;;5021818;28;11744;-86
2021/04/16 01:55:17;;;;;;;;;30.00;27.67;;;;;;;;5004528;28;8918;-88
2021/04/16 01:57:46;;;;;;;;;32.00;24.33;;;;;;;;5024947;28;8883;-89
2021/04/16 02:00:17;;;;;;;;;20.33;20.33;;;;;;;;5020003;28;8876;-85
2021/04/16 02:02:44;;;;;;;;;33.67;29.67;;;;;;;;5011154;28;8879;-84
2021/04/16 02:05:13;;;;;;;;;25.00;22.33;;;;;;;;5024095;28;9033;-85
2021/04/16 02:07:40;;;;;;;;;36.00;24.33;;;;;;;;5022090;28;8902;-84
2021/04/16 02:10:09;;;;;;;;;29.00;23.67;;;;;;;;5024383;28;8982;-85
2021/04/16 02:12:36;;;;;;;;;23.00;19.67;;;;;;;;5021503;28;8956;-87
2021/04/16 02:15:04;;;;;;;;;31.00;23.00;;;;;;;;5023581;28;8872;-87
2021/04/16 02:17:32;;;;;;;;;27.00;24.33;;;;;;;;5021885;28;8884;-83
2021/04/16 02:20:01;;;;;;;;;25.33;21.00;;;;;;;;5013124;28;8902;-86
2021/04/16 02:22:30;;;;;;;;;33.67;29.67;;;;;;;;5022981;28;8860;-87
2021/04/16 02:24:57;;;;;;;;;23.00;20.00;;;;;;;;5022831;28;9037;-87
2021/04/16 02:27:26;;;;;;;;;30.00;23.33;;;;;;;;5005964;28;9673;-86
2021/04/16 02:29:54;;;;;;;;;29.33;26.67;;;;;;;;5021757;28;8968;-85
2021/04/16 02:32:21;;;;;;;;;32.00;26.33;;;;;;;;5026484;28;8817;-84
2021/04/16 02:34:50;;;;;;;;;26.00;21.67;;;;;;;;5021988;28;8946;-84
2021/04/16 02:37:19;;;;;;;;;21.33;21.33;;;;;;;;5016582;28;9621;-83
2021/04/16 02:39:46;;;;;;;;;26.33;22.33;;;;;;;;5022725;28;8925;-84
2021/04/16 02:42:13;;;;;;;;;29.00;23.67;;;;;;;;5022121;28;8884;-81
2021/04/16 02:44:42;;;;;;;;;28.00;25.33;;;;;;;;5021246;28;8864;-81
2021/04/16 02:47:08;;;;;;;;;25.00;19.00;;;;;;;;5014158;28;8882;-81
2021/04/16 02:49:36;;;;;;;;;27.00;22.67;;;;;;;;5020900;28;8875;-82
2021/04/16 02:52:05;;;;;;;;;21.33;21.33;;;;;;;;5021027;28;8884;-81
2021/04/16 02:54:32;;;;;;;;;30.67;24.00;;;;;;;;5026620;28;8853;-80
2021/04/16 02:56:59;;;;;;;;;20.67;20.00;;;;;;;;5020400;28;8884;-81
2021/04/16 02:59:27;;;;;;;;;20.00;20.00;;;;;;;;5021504;28;8896;-81
2021/04/16 03:01:54;;;;;;;;;23.00;17.00;;;;;;;;5014655;28;8804;-82
2021/04/16 03:04:21;;;;;;;;;26.00;26.00;;;;;;;;5020465;28;8988;-82
2021/04/16 03:06:48;;;;;;;;;23.67;21.33;;;;;;;;5025518;28;9688;-87
2021/04/16 03:09:16;;;;;;;;;29.67;24.67;;;;;;;;5031702;28;9027;-87
2021/04/16 03:11:43;;;;;;;;;28.67;23.67;;;;;;;;5025465;28;8878;-87
2021/04/16 03:14:10;;;;;;;;;30.67;26.67;;;;;;;;5033700;28;8888;-88
2021/04/16 03:16:38;;;;;;;;;24.00;22.00;;;;;;;;5024967;28;9026;-89
2021/04/16 03:19:06;;;;;;;;;29.67;27.67;;;;;;;;5026531;28;8875;-90
2021/04/16 03:21:33;;;;;;;;;22.00;22.00;;;;;;;;5024208;28;8880;-90
2021/04/16 03:24:00;;;;;;;;;28.33;25.67;;;;;;;;5034591;28;8869;-89
2021/04/16 03:26:28;;;;;;;;;25.00;24.00;;;;;;;;5024308;28;8872;-89
2021/04/16 03:28:56;;;;;;;;;28.33;22.00;;;;;;;;5026344;28;8875;-82
2021/04/16 03:31:25;;;;;;;;;23.00;19.67;;;;;;;;5023894;28;8829;-84
2021/04/16 03:33:52;;;;;;;;;25.00;23.33;;;;;;;;5026381;28;8998;-83
2021/04/16 03:36:19;;;;;;;;;31.33;27.00;;;;;;;;5022602;28;8973;-84
2021/04/16 03:38:47;;;;;;;;;34.33;31.00;;;;;;;;5022378;28;9622;-84
2021/04/16 03:41:14;;;;;;;;;27.33;24.00;;;;;;;;5027896;28;8898;-86
2021/04/16 03:43:42;;;;;;;;;35.00;32.33;;;;;;;;5024627;28;8871;-82
2021/04/16 03:46:09;;;;;;;;;26.33;25.67;;;;;;;;5024892;28;8860;-88
2021/04/16 03:48:37;;;;;;;;;35.33;27.67;;;;;;;;5019838;28;8878;-87
2021/04/16 03:51:04;;;;;;;;;27.00;25.67;;;;;;;;5022411;28;9676;-92
2021/04/16 03:53:32;;;;;;;;;23.33;21.67;;;;;;;;5026324;28;9004;-93
2021/04/16 03:55:59;;;;;;;;;32.00;25.67;;;;;;;;5029517;28;8860;-85
2021/04/16 03:58:26;;;;;;;;;39.67;32.33;;;;;;;;5034997;28;9606;-84
2021/04/16 04:00:54;;;;;;;;;33.33;25.00;;;;;;;;5023657;28;8824;-84
2021/04/16 04:03:21;;;;;;;;;27.67;25.67;;;;;;;;5025684;28;9636;-84
2021/04/16 04:05:49;;;;;;;;;30.00;30.00;;;;;;;;5021768;28;8940;-82
2021/04/16 04:08:16;;;;;;;;;37.67;32.33;;;;;;;;5027227;28;9019;-82
2021/04/16 04:10:43;;;;;;;;;39.33;36.33;;;;;;;;5023592;28;8876;-81
2021/04/16 04:13:12;;;;;;;;;34.00;32.33;;;;;;;;5028379;28;8867;-81
2021/04/16 04:15:39;;;;;;;;;34.00;30.33;;;;;;;;5023633;28;8856;-85
2021/04/16 04:18:08;;;;;;;;;36.67;30.00;;;;;;;;5018714;28;8960;-83
2021/04/16 04:20:39;;;;;;;;;37.00;33.00;;;;;;;;5033715;28;8888;-85
2021/04/16 04:23:08;;;;;;;;;50.67;37.00;;;;;;;;5021589;28;9010;-83
2021/04/16 04:25:35;;;;;;;;;39.33;34.00;;;;;;;;5024676;28;9601;-83
2021/04/16 04:28:04;;;;;;;;;33.33;32.33;;;;;;;;5023325;28;8979;-82
2021/04/16 04:30:35;;;;;;;;;32.67;31.00;;;;;;;;5033102;28;8812;-84
2021/04/16 04:33:02;;;;;;;;;31.33;31.33;;;;;;;;5019834;28;8871;-85
2021/04/16 04:35:30;;;;;;;;;32.33;32.33;;;;;;;;5023241;28;9052;-84
2021/04/16 04:37:57;;;;;;;;;18.33;15.67;;;;;;;;5022433;28;8872;-84
2021/04/16 04:40:26;;;;;;;;;30.67;30.67;;;;;;;;5007444;28;8900;-84
2021/04/16 04:42:53;;;;;;;;;41.00;39.67;;;;;;;;5032959;28;8861;-84
2021/04/16 04:45:21;;;;;;;;;35.00;35.00;;;;;;;;5023136;28;8903;-85
2021/04/16 04:47:48;;;;;;;;;30.00;26.67;;;;;;;;5026117;28;8891;-84
2021/04/16 04:50:15;;;;;;;;;37.00;31.67;;;;;;;;5027451;28;8989;-87
2021/04/16 04:52:44;;;;;;;;;40.00;36.00;;;;;;;;5022949;28;8884;-86
2021/04/16 04:55:15;;;;;;;;;37.33;34.67;;;;;;;;5025113;28;8994;-88
2021/04/16 04:57:42;;;;;;;;;35.33;31.33;;;;;;;;5027857;28;8868;-84
2021/04/16 05:00:12;;;;;;;;;37.67;35.33;;;;;;;;5024051;28;9027;-86
2021/04/16 05:02:39;;;;;;;;;42.33;39.67;;;;;;;;5028817;28;8891;-84
2021/04/16 05:05:07;;;;;;;;;46.67;37.67;;;;;;;;5022811;28;8886;-84
2021/04/16 05:07:34;;;;;;;;;45.33;39.33;;;;;;;;5024497;28;8994;-85
2021/04/16 05:10:03;;;;;;;;;39.00;33.33;;;;;;;;5025222;28;9584;-85
2021/04/16 05:12:30;;;;;;;;;45.00;34.00;;;;;;;;5024333;28;8875;-87
2021/04/16 05:14:57;;;;;;;;;36.00;32.33;;;;;;;;5023861;28;9015;-88
2021/04/16 05:17:24;;;;;;;;;41.67;34.67;;;;;;;;5025387;28;8872;-88
2021/04/16 05:19:51;;;;;;;;;38.33;34.00;;;;;;;;5023398;28;9004;-94
2021/04/16 05:22:18;;;;;;;;;31.33;31.33;;;;;;;;5021756;28;8888;-89
2021/04/16 05:24:45;;;;;;;;;41.67;36.67;;;;;;;;5024565;28;8947;-86
2021/04/16 05:27:14;;;;;;;;;34.00;32.33;;;;;;;;5028047;28;9035;-87
2021/04/16 05:29:41;;;;;;;;;36.00;31.67;;;;;;;;5025889;28;8848;-88
2021/04/16 05:32:09;;;;;;;;;42.33;38.33;;;;;;;;5029050;28;9625;-89
2021/04/16 05:34:36;;;;;;;;;46.00;41.33;;;;;;;;5026089;28;9118;-75
2021/04/16 05:37:04;;;;;;;;;42.00;34.00;;;;;;;;5020140;28;8876;-81
2021/04/16 05:39:31;;;;;;;;;38.00;35.00;;;;;;;;5027434;28;8895;-79
2021/04/16 05:41:58;;;;;;;;;42.33;37.00;;;;;;;;5021610;28;9704;-82
2021/04/16 05:44:26;;;;;;;;;31.33;26.67;;;;;;;;5022669;28;8906;-79
2021/04/16 05:46:53;;;;;;;;;40.67;38.33;;;;;;;;5016018;28;8906;-86
2021/04/16 05:49:21;;;;;;;;;30.00;30.00;;;;;;;;5021893;28;8897;-78
2021/04/16 05:51:48;;;;;;;;;34.00;33.67;;;;;;;;5021990;28;8860;-82
2021/04/16 05:54:15;;;;;;;;;39.67;36.67;;;;;;;;5021284;28;9313;-70
2021/04/16 05:56:41;;;;;;;;;31.00;28.00;;;;;;;;5022450;28;8879;-70
2021/04/16 05:59:08;;;;;;;;;34.00;31.00;;;;;;;;5028745;28;8869;-70
2021/04/16 06:01:36;;;;;;;;;37.00;32.33;;;;;;;;5021387;28;8867;-71
2021/04/16 06:04:04;;;;;;;;;42.33;37.67;;;;;;;;5019235;28;8887;-68
2021/04/16 06:06:31;;;;;;;;;47.33;42.33;;;;;;;;5021627;28;8875;-65
2021/04/16 06:08:58;;;;;;;;;35.00;32.33;;;;;;;;5022020;28;8859;-68
2021/04/16 06:11:25;;;;;;;;;42.00;34.67;;;;;;;;5021570;28;9030;-65
2021/04/16 06:13:52;;;;;;;;;47.00;38.33;;;;;;;;5022016;28;8859;-69
2021/04/16 06:16:19;;;;;;;;;48.33;41.67;;;;;;;;5020650;28;8864;-68
2021/04/16 06:18:48;;;;;;;;;41.33;41.00;;;;;;;;5014014;28;8856;-68
2021/04/16 06:21:14;;;;;;;;;46.33;39.00;;;;;;;;5022068;28;8966;-67
2021/04/16 06:23:41;;;;;;;;;36.33;33.00;;;;;;;;5030574;28;8910;-67
2021/04/16 06:26:08;;;;;;;;;47.00;41.33;;;;;;;;5021572;28;8860;-68
2021/04/16 06:28:35;;;;;;;;;61.33;47.67;;;;;;;;5020492;28;8887;-68
2021/04/16 06:31:02;;;;;;;;;49.67;41.33;;;;;;;;5021324;28;8788;-70
2021/04/16 06:33:31;;;;;;;;;38.67;36.33;;;;;;;;5017658;28;8901;-70
2021/04/16 06:36:01;;;;;;;;;50.33;44.33;;;;;;;;5020875;28;8867;-70
2021/04/16 06:38:36;;;;;;;;;49.33;43.33;;;;;;;;5021652;28;8879;-70
2021/04/16 06:41:04;;;;;;;;;39.67;37.67;;;;;;;;5025028;28;8990;-70
2021/04/16 06:43:38;;;;;;;;;60.33;49.00;;;;;;;;5034125;28;9626;-69
2021/04/16 06:46:09;;;;;;;;;51.33;43.67;;;;;;;;5026835;28;9615;-71
2021/04/16 06:48:36;;;;;;;;;38.33;38.33;;;;;;;;5014933;28;8856;-70
2021/04/16 06:51:05;;;;;;;;;47.00;43.67;;;;;;;;5019851;28;8891;-69
2021/04/16 06:53:40;;;;;;;;;43.67;43.00;;;;;;;;5025191;28;9028;-70
2021/04/16 06:56:11;;;;;;;;;37.67;37.67;;;;;;;;5024211;28;8879;-70
2021/04/16 06:58:44;;;;;;;;;43.67;38.33;;;;;;;;5030651;28;8996;-70
2021/04/16 07:01:27;;;;;;;;;37.33;34.67;;;;;;;;5024784;28;8812;-70
2021/04/16 07:04:15;;;;;;;;;40.33;36.33;;;;;;;;5021244;28;8856;-74
2021/04/16 07:06:43;;;;;;;;;44.33;41.00;;;;;;;;5024177;28;8880;-73
2021/04/16 07:09:12;;;;;;;;;38.00;35.67;;;;;;;;5024312;28;8875;-70
2021/04/16 07:11:41;;;;;;;;;45.00;39.00;;;;;;;;5025033;28;8868;-72
2021/04/16 07:14:14;;;;;;;;;42.33;42.00;;;;;;;;5023522;28;8917;-70
2021/04/16 07:16:41;;;;;;;;;32.00;29.33;;;;;;;;5028638;28;8865;-69
2021/04/16 07:19:16;;;;;;;;;37.67;35.67;;;;;;;;5022339;28;11674;-70
2021/04/16 07:21:45;;;;;;;;;33.00;31.67;;;;;;;;5019633;28;11634;-69
2021/04/16 07:24:16;;;;;;;;;36.00;36.00;;;;;;;;5023140;28;11597;-71
2021/04/16 07:26:45;;;;;;;;;43.00;41.67;;;;;;;;5016718;28;12510;-71
2021/04/16 07:29:18;;;;;;;;;33.25;33.25;;;;;;;;5014824;28;11625;-70
2021/04/16 07:31:49;;;;;;;;;38.75;32.25;;;;;;;;5021594;28;11689;-69
2021/04/16 07:34:32;;;;;;;;;37.75;36.00;;;;;;;;5019069;28;11660;-69
2021/04/16 07:37:11;;;;;;;;;43.00;41.00;;;;;;;;5017937;28;12569;-69
2021/04/16 07:39:44;;;;;;;;;38.25;38.00;;;;;;;;5019539;28;11715;-69
2021/04/16 07:42:37;;;;;;;;;48.00;40.75;;;;;;;;5021936;28;11622;-69
2021/04/16 07:45:16;;;;;;;;;50.00;41.00;;;;;;;;5019871;28;11638;-69
2021/04/16 07:47:45;;;;;;;;;43.75;40.25;;;;;;;;5012141;28;11643;-70
2021/04/16 07:50:14;;;;;;;;;39.50;36.00;;;;;;;;5022223;28;11622;-69
2021/04/16 07:52:43;;;;;;;;;42.00;37.25;;;;;;;;5017367;28;11616;-72
2021/04/16 07:55:18;;;;;;;;;40.25;37.25;;;;;;;;5019626;28;11630;-71
2021/04/16 07:58:00;;;;;;;;;35.50;35.50;;;;;;;;5021251;28;12425;-71
2021/04/16 08:00:31;;;;;;;;;43.75;38.25;;;;;;;;5021413;28;11519;-71
2021/04/16 08:03:14;;;;;;;;;46.50;38.50;;;;;;;;5021953;28;11610;-73
2021/04/16 08:05:44;;;;;;;;;35.00;28.75;;;;;;;;5024215;28;11781;-71
2021/04/16 08:08:25;;;;;;;;;32.75;30.25;;;;;;;;5020906;28;11697;-72
2021/04/16 08:11:08;;;;;;;;;35.50;29.00;;;;;;;;5019926;28;12475;-72
2021/04/16 08:13:37;;;;;;;;;36.50;34.00;;;;;;;;5021922;28;11618;-71
2021/04/16 08:16:13;;;;;;;;;28.50;28.50;;;;;;;;5021656;28;11625;-71
2021/04/16 08:18:41;;;;;;;;;39.75;34.50;;;;;;;;5020858;28;11600;-72
2021/04/16 08:21:13;;;;;;;;;35.00;32.00;;;;;;;;5021059;28;11592;-72
2021/04/16 08:23:52;;;;;;;;;35.00;35.00;;;;;;;;5019080;28;11584;-72
2021/04/16 08:26:20;;;;;;;;;33.25;32.75;;;;;;;;5020306;28;11702;-71
2021/04/16 08:28:52;;;;;;;;;35.50;33.75;;;;;;;;5024273;28;11626;-72
2021/04/16 08:31:23;;;;;;;;;34.50;32.00;;;;;;;;5016715;28;11565;-72
2021/04/16 08:33:54;;;;;;;;;38.25;35.75;;;;;;;;5018750;28;11631;-72
2021/04/16 08:36:24;;;;;;;;;33.00;31.75;;;;;;;;5021493;28;11601;-70
2021/04/16 08:38:57;;;;;;;;;29.75;28.00;;;;;;;;5019790;28;11613;-71
2021/04/16 08:41:26;;;;;;;;;30.00;28.25;;;;;;;;5020924;28;11670;-71
2021/04/16 08:43:55;;;;;;;;;24.00;24.00;;;;;;;;5020271;28;11608;-71
2021/04/16 08:46:32;;;;;;;;;34.50;30.25;;;;;;;;5021014;28;11638;-70
2021/04/16 08:49:07;;;;;;;;;34.25;29.50;;;;;;;;5018311;28;11715;-71
2021/04/16 08:51:36;;;;;;;;;32.25;30.00;;;;;;;;5021244;28;11620;-73
2021/04/16 08:54:07;;;;;;;;;30.50;28.75;;;;;;;;5020577;28;11605;-71
2021/04/16 08:56:39;;;;;;;;;31.25;27.50;;;;;;;;5019662;28;12482;-72
2021/04/16 08:59:12;;;;;;;;;32.25;30.25;;;;;;;;5026297;28;11610;-71
2021/04/16 09:01:50;;;;;;;;;31.25;28.75;;;;;;;;5020543;28;11711;-72
2021/04/16 09:04:41;;;;;;;;;26.25;25.50;;;;;;;;5019026;28;11571;-73
2021/04/16 09:07:34;;;;;;;;;32.00;29.00;;;;;;;;5021708;28;11615;-68
2021/04/16 09:10:05;;;;;;;;;32.00;31.00;;;;;;;;5021140;28;11565;-70
2021/04/16 09:12:50;;;;;;;;;29.50;26.75;;;;;;;;5019502;28;11671;-72
2021/04/16 09:15:42;;;;;;;;;28.50;28.50;;;;;;;;5021393;28;11688;-72
2021/04/16 09:18:30;;;;;;;;;26.50;26.50;;;;;;;;5013928;28;11541;-72
2021/04/16 09:21:31;;;;;;;;;29.25;28.00;;;;;;;;5020154;28;11697;-72
2021/04/16 09:24:26;;;;;;;;;24.25;22.75;;;;;;;;4951475;28;12357;-71
2021/04/16 09:27:00;;;;;;;;;27.75;26.25;;;;;;;;4956503;28;11647;-71
2021/04/16 09:29:39;;;;;;;;;24.00;24.00;;;;;;;;5002095;28;11576;-72
2021/04/16 09:32:24;;;;;;;;;27.50;27.50;;;;;;;;5018001;28;11493;-69
2021/04/16 09:34:52;;;;;;;;;27.25;25.00;;;;;;;;5007950;28;11254;-70
2021/04/16 09:37:33;;;;;;;;;26.50;24.00;;;;;;;;5018858;28;11267;-69
2021/04/16 09:40:32;;;;;;;;;22.50;21.25;;;;;;;;5020506;28;11199;-71
2021/04/16 09:43:21;;;;;;;;;18.00;18.00;;;;;;;;5012172;28;10997;-71
2021/04/16 09:45:51;;;;;;;;;18.75;17.50;;;;;;;;5015986;28;11104;-72
2021/04/16 09:48:26;;;;;;;;;18.50;18.50;;;;;;;;5015466;28;10750;-72
2021/04/16 09:51:19;;;;;;;;;21.25;19.75;;;;;;;;5020745;28;11626;-72
2021/04/16 09:54:25;;;;;;;;;24.00;24.00;;;;;;;;5019849;28;10881;-71
2021/04/16 09:57:38;;;;;;;;;21.25;20.25;;;;;;;;5019473;28;10660;-70
2021/04/16 10:00:39;;;;;;;;;16.50;16.50;;;;;;;;5022469;28;10697;-71
2021/04/16 10:03:25;;;;;;;;;16.75;16.75;;;;;;;;5015371;28;10450;-71
2021/04/16 10:05:52;;;;;;;;;21.50;21.50;;;;;;;;5014618;28;10399;-72
2021/04/16 10:08:24;;;;;;;;;18.75;18.75;;;;;;;;5021089;28;10529;-73
2021/04/16 10:10:51;;;;;;;;;18.50;18.50;;;;;;;;5020123;28;10529;-71
2021/04/16 10:13:23;;;;;;;;;19.00;19.00;;;;;;;;5021982;28;10561;-73
2021/04/16 10:15:53;;;;;;;;;20.50;19.25;;;;;;;;5021078;28;10669;-72
2021/04/16 10:18:28;;;;;;;;;20.00;19.25;;;;;;;;5022178;28;10713;-70
2021/04/16 10:20:59;;;;;;;;;21.50;21.50;;;;;;;;5024468;28;10888;-72
2021/04/16 10:23:30;;;;;;;;;18.50;17.50;;;;;;;;5023662;28;11922;-71
2021/04/16 12:39:15;;;;;;;;;17.00;14.75;;;;;;;;5012469;28;10552;-72
2021/04/16 12:41:47;;;;;;;;;15.25;14.25;;;;;;;;5023369;28;10801;-71
2021/04/16 12:44:24;;;;;;;;;20.00;15.50;;;;;;;;5022649;28;10656;-72
2021/04/16 12:46:53;;;;;;;;;14.50;10.25;;;;;;;;5022135;28;10664;-71
2021/04/16 12:49:23;;;;;;;;;10.25;10.25;;;;;;;;5011545;28;10551;-71
2021/04/16 12:51:49;;;;;;;;;8.00;8.00;;;;;;;;5020347;28;10553;-71
2021/04/16 12:54:16;;;;;;;;;16.50;15.50;;;;;;;;5023240;28;10587;-72
2021/04/16 12:56:44;;;;;;;;;20.75;19.25;;;;;;;;5021938;28;10722;-71
2021/04/16 12:59:13;;;;;;;;;19.00;19.00;;;;;;;;5011148;28;10612;-70
2021/04/16 13:01:41;;;;;;;;;14.75;14.75;;;;;;;;5022442;28;10473;-71
2021/04/16 13:04:09;;;;;;;;;13.00;13.00;;;;;;;;5021833;28;10461;-70
2021/04/16 13:06:39;;;;;;;;;10.00;8.00;;;;;;;;5012201;28;10209;-70
2021/04/16 13:09:07;;;;;;;;;10.00;9.25;;;;;;;;5018670;28;10105;-72
2021/04/16 13:11:34;;;;;;;;;9.75;9.75;;;;;;;;5022359;28;9887;-70
2021/04/16 13:14:01;;;;;;;;;22.75;15.00;;;;;;;;5021668;28;9746;-71
2021/04/16 13:16:28;;;;;;;;;16.00;12.25;;;;;;;;5023018;28;10030;-71
2021/04/16 13:18:57;;;;;;;;;11.50;10.00;;;;;;;;5021054;28;9931;-71
2021/04/16 13:21:29;;;;;;;;;15.25;11.50;;;;;;;;5021834;28;9834;-70
2021/04/16 13:23:57;;;;;;;;;11.75;10.00;;;;;;;;5023135;28;9932;-70
2021/04/16 13:26:25;;;;;;;;;16.00;16.00;;;;;;;;5021885;28;11121;-71
2021/04/16 13:28:52;;;;;;;;;11.75;11.75;;;;;;;;5022582;28;9962;-71
2021/04/16 13:31:19;;;;;;;;;12.25;12.25;;;;;;;;5020918;28;9612;-71
2021/04/16 13:33:47;;;;;;;;;12.00;11.25;;;;;;;;5019704;28;9759;-72
2021/04/16 13:36:16;;;;;;;;;11.75;11.00;;;;;;;;5018742;28;9730;-71
2021/04/16 13:38:45;;;;;;;;;13.00;11.25;;;;;;;;5022605;28;9925;-70
2021/04/16 13:41:12;;;;;;;;;11.75;11.75;;;;;;;;5021204;28;9929;-71
2021/04/16 13:43:40;;;;;;;;;15.00;15.00;;;;;;;;5021639;28;10202;-71
2021/04/16 13:46:08;;;;;;;;;9.75;9.50;;;;;;;;5022572;28;10090;-71
2021/04/16 13:48:35;;;;;;;;;9.75;9.75;;;;;;;;5021316;28;10149;-71
2021/04/16 13:51:02;;;;;;;;;10.75;10.75;;;;;;;;5017516;28;10227;-70
2021/04/16 13:53:29;;;;;;;;;9.25;9.25;;;;;;;;5021146;28;10212;-71
2021/04/16 13:55:57;;;;;;;;;12.50;11.00;;;;;;;;5022203;28;11036;-71
2021/04/16 13:58:24;;;;;;;;;11.00;9.00;;;;;;;;5022518;28;10281;-70
2021/04/16 14:00:51;;;;;;;;;13.25;11.25;;;;;;;;5021369;28;10179;-70
2021/04/16 14:03:26;;;;;;;;;9.00;7.25;;;;;;;;5024002;28;10197;-70
2021/04/16 14:05:55;;;;;;;;;12.25;12.25;;;;;;;;5020560;28;10285;-71
2021/04/16 14:08:28;;;;;;;;;10.75;10.25;;;;;;;;5020316;28;10378;-72
2021/04/16 14:11:00;;;;;;;;;10.50;10.50;;;;;;;;5024297;28;10433;-73
2021/04/16 14:13:28;;;;;;;;;10.25;8.75;;;;;;;;5021924;28;10601;-72
2021/04/16 14:15:56;;;;;;;;;13.50;12.00;;;;;;;;5020149;28;10531;-71
2021/04/16 14:18:29;;;;;;;;;12.50;12.50;;;;;;;;5021137;28;10427;-71
2021/04/16 14:20:56;;;;;;;;;11.25;11.25;;;;;;;;5017046;28;10543;-71
2021/04/16 14:23:24;;;;;;;;;10.00;10.00;;;;;;;;5018296;28;10435;-71
2021/04/16 14:25:51;;;;;;;;;12.50;12.50;;;;;;;;5022863;28;10340;-71
2021/04/16 14:28:21;;;;;;;;;15.00;15.00;;;;;;;;5019687;28;10267;-70
2021/04/16 14:30:48;;;;;;;;;14.75;13.00;;;;;;;;5020528;28;10420;-72
2021/04/16 14:33:17;;;;;;;;;15.00;15.00;;;;;;;;5020998;28;10442;-73
2021/04/16 14:35:44;;;;;;;;;12.50;12.50;;;;;;;;5018508;28;10582;-71
2021/04/16 14:38:11;;;;;;;;;9.75;9.75;;;;;;;;5021180;28;10524;-71
2021/04/16 14:40:38;;;;;;;;;13.25;13.25;;;;;;;;5016650;28;10371;-70
2021/04/16 14:43:06;;;;;;;;;18.00;15.25;;;;;;;;5019693;28;11228;-72
2021/04/16 14:45:36;;;;;;;;;9.25;9.25;;;;;;;;5022870;28;10616;-72
2021/04/16 14:48:04;;;;;;;;;13.25;13.25;;;;;;;;5018773;28;10412;-69
2021/04/16 14:50:32;;;;;;;;;14.25;11.00;;;;;;;;5018138;28;10584;-73
2021/04/16 14:53:02;;;;;;;;;15.00;12.75;;;;;;;;5015451;28;10397;-70
2021/04/16 14:55:31;;;;;;;;;12.25;12.25;;;;;;;;5018762;28;10537;-73
2021/04/16 14:57:58;;;;;;;;;15.25;13.50;;;;;;;;5021242;28;10508;-72
2021/04/16 15:00:27;;;;;;;;;12.50;12.25;;;;;;;;5020061;28;10441;-71
2021/04/16 15:02:55;;;;;;;;;14.00;14.00;;;;;;;;5020234;28;10520;-71
2021/04/16 15:05:23;;;;;;;;;12.00;12.00;;;;;;;;5019063;28;10654;-71
2021/04/16 15:07:52;;;;;;;;;14.00;12.25;;;;;;;;5022481;28;10669;-72
2021/04/16 15:10:24;;;;;;;;;14.50;14.50;;;;;;;;5021400;28;11365;-71
2021/04/16 15:12:51;;;;;;;;;14.75;10.50;;;;;;;;5022186;28;10720;-72
2021/04/16 15:15:28;;;;;;;;;13.50;13.50;;;;;;;;5018750;28;10524;-72
2021/04/16 15:17:56;;;;;;;;;14.00;14.00;;;;;;;;5022075;28;10451;-71
2021/04/16 15:20:25;;;;;;;;;17.50;14.75;;;;;;;;5016493;28;10541;-72
2021/04/16 15:22:53;;;;;;;;;12.75;11.00;;;;;;;;5020398;28;10484;-72
2021/04/16 15:25:20;;;;;;;;;11.00;11.00;;;;;;;;5019815;28;10345;-71
2021/04/16 15:27:49;;;;;;;;;12.50;12.50;;;;;;;;5023085;28;10305;-72
2021/04/16 15:30:21;;;;;;;;;19.00;17.00;;;;;;;;5023126;28;10256;-72
2021/04/16 15:32:49;;;;;;;;;16.50;16.50;;;;;;;;5019771;28;11156;-73
2021/04/16 15:46:27;;;;;;;;;15.25;14.00;;;;;;;;5017952;28;10553;-71
2021/04/16 15:48:54;;;;;;;;;15.75;15.75;;;;;;;;5022450;28;10513;-70
2021/04/16 15:51:24;;;;;;;;;15.75;15.75;;;;;;;;5016390;28;10617;-72
2021/04/16 15:53:53;;;;;;;;;18.00;14.75;;;;;;;;5022074;28;10756;-70
2021/04/16 15:56:23;;;;;;;;;14.00;14.00;;;;;;;;5021310;28;10886;-71
2021/04/16 15:58:53;;;;;;;;;15.25;15.25;;;;;;;;5021305;28;10727;-71
2021/04/16 16:01:22;;;;;;;;;18.25;14.50;;;;;;;;5019145;28;10713;-70
2021/04/16 16:03:50;;;;;;;;;14.75;14.75;;;;;;;;5019575;28;11706;-70
2021/04/16 16:06:16;;;;;;;;;14.50;14.00;;;;;;;;5016938;28;10860;-70
2021/04/16 16:08:46;;;;;;;;;14.75;14.75;;;;;;;;5021217;28;10709;-70
2021/04/16 16:11:20;;;;;;;;;18.00;15.00;;;;;;;;5019144;28;10977;-71
2021/04/16 16:13:47;;;;;;;;;16.00;14.25;;;;;;;;5029260;28;10585;-72
2021/04/16 16:16:16;;;;;;;;;15.75;14.00;;;;;;;;5021027;28;10777;-70
2021/04/16 16:18:44;;;;;;;;;13.75;12.50;;;;;;;;5023761;28;11568;-70
2021/04/16 16:21:14;;;;;;;;;19.75;15.50;;;;;;;;5014457;28;10969;-71
2021/04/16 16:23:42;;;;;;;;;12.00;12.00;;;;;;;;5022422;28;10773;-72
2021/04/16 16:26:11;;;;;;;;;18.75;16.25;;;;;;;;5036765;28;10667;-71
2021/04/16 16:28:39;;;;;;;;;19.75;16.75;;;;;;;;5022430;28;10963;-72
2021/04/16 16:31:06;;;;;;;;;15.25;15.25;;;;;;;;5019888;28;10952;-71
2021/04/16 16:33:33;;;;;;;;;14.00;14.00;;;;;;;;5025532;28;11023;-72
2021/04/16 16:36:00;;;;;;;;;13.50;13.50;;;;;;;;5021333;28;10730;-69
2021/04/16 16:38:28;;;;;;;;;17.00;14.50;;;;;;;;5018713;28;10802;-71
2021/04/16 16:40:55;;;;;;;;;13.25;13.25;;;;;;;;5023292;28;11590;-71
2021/04/16 16:43:26;;;;;;;;;14.75;11.75;;;;;;;;5022375;28;10755;-73
2021/04/16 16:45:56;;;;;;;;;18.50;14.00;;;;;;;;5020030;28;10770;-72
2021/04/16 16:48:23;;;;;;;;;14.00;14.00;;;;;;;;5025203;28;10957;-71
2021/04/16 16:50:51;;;;;;;;;14.25;14.00;;;;;;;;5019562;28;10659;-70
2021/04/16 16:53:19;;;;;;;;;19.50;18.00;;;;;;;;5023257;28;10842;-68
2021/04/16 16:55:47;;;;;;;;;14.75;13.75;;;;;;;;5020307;28;11817;-68
2021/04/16 16:58:16;;;;;;;;;16.25;14.00;;;;;;;;5024856;28;10948;-68
2021/04/16 17:00:47;;;;;;;;;15.00;15.00;;;;;;;;5025915;28;10743;-68
2021/04/16 17:03:14;;;;;;;;;18.50;16.00;;;;;;;;5018518;28;11026;-71
2021/04/16 17:05:41;;;;;;;;;11.75;11.75;;;;;;;;5020781;28;11009;-71